Time;durP1;ratioP1;P1;durP2;ratioP2;P2;SDS_P1;SDS_P2;PMS_P1;PMS_P2;Temp;Humidity;BMP_temperature;BMP_pressure;BME280_temperature;BME280_humidity;BME280_pressure;Samples;Min_cycle;Max_cycle;Signal;HPM_P1;HPM_P2
2022/07/03 00:00:13;;;;;;;3.28;1.95;;;17.60;99.90;;;;;;5011959;28;20196;-64
2022/07/03 00:02:41;;;;;;;2.42;2.10;;;17.40;99.90;;;;;;5012492;28;20211;-64
2022/07/03 00:05:09;;;;;;;2.38;2.28;;;17.30;99.90;;;;;;5014327;28;20624;-64
2022/07/03 00:07:37;;;;;;;2.17;2.08;;;17.40;99.90;;;;;;5014491;28;20734;-64
2022/07/03 00:10:05;;;;;;;2.25;2.15;;;17.50;99.90;;;;;;5014271;28;20204;-64
2022/07/03 00:12:32;;;;;;;2.45;2.20;;;17.40;99.90;;;;;;5025752;28;20204;-64
2022/07/03 00:14:59;;;;;;;2.97;2.22;;;17.40;99.90;;;;;;5011465;28;20207;-64
2022/07/03 00:17:26;;;;;;;2.63;2.42;;;17.20;99.90;;;;;;5013797;28;20216;-63
2022/07/03 00:19:55;;;;;;;2.90;2.28;;;17.10;99.90;;;;;;5013917;28;20203;-64
2022/07/03 00:22:25;;;;;;;3.08;2.58;;;17.00;99.90;;;;;;5025469;28;20214;-64
2022/07/03 00:24:53;;;;;;;2.83;2.40;;;17.30;99.90;;;;;;5015543;28;20212;-64
2022/07/03 00:27:22;;;;;;;2.30;2.10;;;17.30;99.90;;;;;;5013199;28;20205;-64
2022/07/03 00:29:50;;;;;;;2.45;2.30;;;17.30;99.90;;;;;;5012147;28;20200;-64
2022/07/03 00:32:22;;;;;;;2.30;2.20;;;17.30;99.90;;;;;;5022622;28;20219;-64
2022/07/03 00:34:52;;;;;;;2.45;2.25;;;17.30;99.90;;;;;;5014922;28;20204;-64
2022/07/03 00:37:21;;;;;;;2.10;2.00;;;17.50;99.90;;;;;;5012832;28;20227;-64
2022/07/03 00:39:49;;;;;;;2.50;2.30;;;17.60;99.90;;;;;;5015489;28;20205;-64
2022/07/03 00:42:16;;;;;;;2.63;2.50;;;17.60;99.90;;;;;;5015211;28;20211;-64
2022/07/03 00:44:46;;;;;;;2.95;2.33;;;17.30;99.90;;;;;;5020089;28;20196;-64
2022/07/03 00:47:13;;;;;;;7.32;2.30;;;17.10;99.90;;;;;;5010598;28;20208;-64
2022/07/03 00:49:41;;;;;;;3.22;2.50;;;17.10;99.90;;;;;;5012695;28;20196;-64
2022/07/03 00:52:12;;;;;;;2.22;2.08;;;17.10;99.90;;;;;;5026985;28;20299;-64
2022/07/03 00:54:45;;;;;;;2.88;2.17;;;17.00;99.90;;;;;;5020941;28;20200;-64
2022/07/03 00:57:16;;;;;;;3.80;2.42;;;17.00;99.90;;;;;;5005355;28;20255;-64
2022/07/03 00:59:44;;;;;;;2.10;2.00;;;17.00;99.90;;;;;;5011111;28;20204;-64
2022/07/03 01:02:20;;;;;;;2.50;2.30;;;17.10;99.90;;;;;;5013399;28;20200;-64
2022/07/03 01:04:52;;;;;;;2.30;2.20;;;17.00;99.90;;;;;;5022932;28;20215;-64
2022/07/03 01:07:33;;;;;;;2.55;2.22;;;16.80;99.90;;;;;;5017593;28;20231;-64
2022/07/03 01:10:13;;;;;;;2.70;2.15;;;16.90;99.90;;;;;;5016397;28;20200;-64
2022/07/03 01:12:54;;;;;;;3.67;2.25;;;17.00;99.90;;;;;;5011710;28;20211;-64
2022/07/03 01:15:30;;;;;;;2.42;2.33;;;16.90;99.90;;;;;;5011290;28;20207;-64
2022/07/03 01:18:09;;;;;;;4.07;2.45;;;16.80;99.90;;;;;;5012367;28;20216;-64
2022/07/03 01:20:42;;;;;;;2.72;2.53;;;16.60;99.90;;;;;;5023213;28;21039;-64
2022/07/03 01:23:21;;;;;;;4.00;2.47;;;16.60;99.90;;;;;;5032116;28;20200;-64
2022/07/03 01:25:51;;;;;;;3.70;2.60;;;16.40;99.90;;;;;;5017425;28;20652;-64
2022/07/03 01:28:23;;;;;;;3.78;2.60;;;16.40;99.90;;;;;;5013048;28;20550;-64
2022/07/03 01:30:52;;;;;;;2.50;2.20;;;16.50;99.90;;;;;;5015058;28;20222;-64
2022/07/03 01:33:22;;;;;;;5.25;2.50;;;16.50;99.90;;;;;;5032365;28;20203;-64
2022/07/03 01:36:02;;;;;;;3.83;2.58;;;16.50;99.90;;;;;;5016986;28;20693;-64
2022/07/03 01:38:30;;;;;;;3.80;2.72;;;16.60;99.90;;;;;;4996109;28;20227;-64
2022/07/03 01:40:59;;;;;;;2.95;2.70;;;16.50;99.90;;;;;;5012298;28;20211;-64
2022/07/03 01:43:30;;;;;;;2.78;2.58;;;16.40;99.90;;;;;;5032292;28;20571;-64
2022/07/03 01:45:59;;;;;;;4.53;2.55;;;16.50;99.90;;;;;;5016624;28;20212;-64
2022/07/03 01:48:27;;;;;;;3.15;2.85;;;16.50;99.90;;;;;;5006047;28;20208;-64
2022/07/03 01:50:55;;;;;;;2.78;2.58;;;16.50;99.90;;;;;;5012381;28;20219;-64
2022/07/03 01:53:25;;;;;;;2.80;2.60;;;16.40;99.90;;;;;;5012760;28;20279;-64
2022/07/03 01:55:55;;;;;;;2.97;2.53;;;16.30;99.90;;;;;;5011593;28;20721;-64
2022/07/03 01:58:23;;;;;;;3.50;2.65;;;16.30;99.90;;;;;;5011802;28;20223;-64
2022/07/03 02:00:57;;;;;;;3.17;2.90;;;16.30;99.90;;;;;;5031410;28;20207;-64
2022/07/03 02:03:28;;;;;;;3.45;3.00;;;16.20;99.90;;;;;;5025014;28;20294;-64
2022/07/03 02:06:03;;;;;;;2.95;2.50;;;16.00;99.90;;;;;;5010355;28;20211;-64
2022/07/03 02:08:37;;;;;;;2.90;2.60;;;16.00;99.90;;;;;;5012251;28;20200;-64
2022/07/03 02:11:15;;;;;;;3.22;2.50;;;15.90;99.90;;;;;;4993880;28;20203;-64
2022/07/03 02:14:00;;;;;;;2.67;2.47;;;15.80;99.90;;;;;;5016784;28;20208;-64
2022/07/03 02:16:27;;;;;;;2.90;2.58;;;15.80;99.90;;;;;;5010125;28;20570;-64
2022/07/03 02:18:59;;;;;;;2.85;2.65;;;15.80;99.90;;;;;;5011630;28;20228;-64
2022/07/03 02:21:29;;;;;;;3.08;2.58;;;15.90;99.90;;;;;;5015956;28;20218;-64
2022/07/03 02:24:06;;;;;;;2.92;2.72;;;16.00;99.90;;;;;;5019763;28;20629;-64
2022/07/03 02:26:34;;;;;;;2.85;2.65;;;16.00;99.90;;;;;;5010713;28;20223;-64
2022/07/03 02:29:05;;;;;;;2.75;2.50;;;16.00;99.90;;;;;;5010673;28;20622;-64
2022/07/03 02:31:40;;;;;;;2.50;2.30;;;15.90;99.90;;;;;;5019543;28;20230;-64
2022/07/03 02:34:08;;;;;;;3.85;2.42;;;16.00;99.90;;;;;;5020288;28;20207;-64
2022/07/03 02:36:36;;;;;;;3.65;2.47;;;15.60;99.90;;;;;;5013691;28;20212;-64
2022/07/03 02:39:05;;;;;;;3.17;2.40;;;15.50;99.90;;;;;;5011689;28;20231;-63
2022/07/03 02:41:43;;;;;;;2.78;2.58;;;15.70;99.90;;;;;;5021528;28;20534;-64
2022/07/03 02:44:30;;;;;;;3.42;2.67;;;15.40;99.90;;;;;;5021776;28;20376;-64
2022/07/03 02:47:04;;;;;;;2.70;2.50;;;15.50;99.90;;;;;;5011790;28;20208;-64
2022/07/03 02:49:44;;;;;;;3.20;2.83;;;15.70;99.90;;;;;;5015745;28;20295;-64
2022/07/03 02:52:27;;;;;;;2.88;2.67;;;15.60;99.90;;;;;;5016051;28;20298;-64
2022/07/03 02:54:58;;;;;;;3.13;2.85;;;15.50;99.90;;;;;;5018586;28;20670;-64
2022/07/03 02:57:25;;;;;;;3.03;2.72;;;15.70;99.90;;;;;;5021368;28;20224;-64
2022/07/03 02:59:57;;;;;;;3.25;2.90;;;15.70;99.90;;;;;;5014598;28;20207;-64
2022/07/03 03:02:37;;;;;;;3.03;2.50;;;15.70;99.90;;;;;;5014969;28;20243;-64
2022/07/03 03:05:10;;;;;;;3.20;2.90;;;15.60;99.90;;;;;;5003674;28;20673;-64
2022/07/03 03:07:50;;;;;;;2.67;2.47;;;15.60;99.90;;;;;;5022204;28;20207;-64
2022/07/03 03:10:19;;;;;;;2.85;2.65;;;15.60;99.90;;;;;;5011575;28;20211;-64
2022/07/03 03:12:50;;;;;;;3.33;3.03;;;15.80;99.90;;;;;;5022155;28;20295;-64
2022/07/03 03:15:26;;;;;;;4.82;2.80;;;15.80;99.90;;;;;;5027237;28;20287;-64
2022/07/03 03:18:01;;;;;;;2.90;2.70;;;15.50;99.90;;;;;;5004292;28;20530;-64
2022/07/03 03:20:31;;;;;;;2.92;2.50;;;15.30;99.90;;;;;;5017129;28;20250;-64
2022/07/03 03:23:11;;;;;;;3.23;2.63;;;15.40;99.90;;;;;;5013609;28;20247;-64
2022/07/03 03:25:38;;;;;;;4.00;2.70;;;15.60;99.90;;;;;;5013758;28;20608;-64
2022/07/03 03:28:05;;;;;;;3.65;3.05;;;15.50;99.90;;;;;;5013507;28;20262;-64
2022/07/03 03:30:35;;;;;;;2.88;2.67;;;15.80;99.90;;;;;;5013472;28;20243;-64
2022/07/03 03:33:03;;;;;;;3.50;3.00;;;15.70;99.90;;;;;;5014406;28;20212;-64
2022/07/03 03:35:29;;;;;;;3.30;3.00;;;15.60;99.90;;;;;;5014036;28;20206;-64
2022/07/03 03:37:56;;;;;;;3.03;2.83;;;15.40;99.90;;;;;;5012830;28;20644;-64
2022/07/03 03:40:23;;;;;;;2.70;2.50;;;15.50;99.90;;;;;;5014493;28;20287;-63
2022/07/03 03:42:50;;;;;;;3.33;3.03;;;15.70;99.90;;;;;;5026644;28;20286;-64
2022/07/03 03:45:17;;;;;;;3.58;2.60;;;15.80;99.90;;;;;;5029818;28;20246;-64
2022/07/03 03:47:46;;;;;;;4.43;2.65;;;15.90;99.90;;;;;;5016653;28;20262;-64
2022/07/03 03:50:13;;;;;;;6.38;3.20;;;15.90;99.90;;;;;;5011665;28;20283;-64
2022/07/03 03:52:40;;;;;;;4.38;2.80;;;16.10;99.90;;;;;;5018832;28;20239;-64
2022/07/03 03:55:09;;;;;;;2.70;2.40;;;15.90;99.90;;;;;;5023372;28;20200;-64
2022/07/03 03:57:37;;;;;;;2.88;2.67;;;16.00;99.90;;;;;;5013954;28;20208;-64
2022/07/03 04:00:05;;;;;;;4.03;3.13;;;16.10;99.90;;;;;;5012813;28;20205;-63
2022/07/03 04:02:32;;;;;;;3.67;2.92;;;16.20;99.90;;;;;;5013158;28;20200;-64
2022/07/03 04:05:00;;;;;;;3.08;2.80;;;15.90;99.90;;;;;;5013733;28;20299;-64
2022/07/03 04:07:27;;;;;;;5.72;2.50;;;15.90;99.90;;;;;;5012337;28;20200;-64
2022/07/03 04:09:54;;;;;;;6.90;2.80;;;16.20;99.90;;;;;;5011551;28;20288;-64
2022/07/03 04:12:21;;;;;;;3.72;2.72;;;16.00;99.90;;;;;;5009601;28;20284;-64
2022/07/03 04:14:48;;;;;;;3.03;2.53;;;17.80;99.90;;;;;;5012629;28;20208;-64
2022/07/03 04:17:16;;;;;;;4.43;2.92;;;18.60;99.90;;;;;;5015179;28;20282;-64
2022/07/03 04:19:43;;;;;;;3.35;2.50;;;19.10;99.90;;;;;;5011293;28;20230;-64
2022/07/03 04:22:11;;;;;;;2.47;2.25;;;20.10;99.90;;;;;;5027404;28;20290;-64
2022/07/03 04:24:39;;;;;;;3.25;2.53;;;20.20;99.90;;;;;;5031703;28;20251;-64
2022/07/03 04:27:06;;;;;;;3.17;2.92;;;20.60;99.90;;;;;;5018249;28;20723;-64
2022/07/03 04:29:33;;;;;;;6.20;2.60;;;21.30;97.00;;;;;;5011849;28;20280;-64
2022/07/03 04:32:00;;;;;;;3.83;2.45;;;20.80;96.40;;;;;;5012017;28;20607;-64
2022/07/03 04:34:27;;;;;;;3.10;2.67;;;19.60;99.90;;;;;;5032156;28;20235;-64
2022/07/03 04:36:54;;;;;;;2.42;2.22;;;18.80;99.90;;;;;;5023067;28;20208;-64
2022/07/03 04:39:22;;;;;;;5.00;2.58;;;18.50;99.90;;;;;;5012085;28;20303;-64
2022/07/03 04:41:49;;;;;;;2.30;2.20;;;18.50;99.90;;;;;;5012059;28;20204;-64
2022/07/03 04:44:18;;;;;;;2.50;2.30;;;18.70;99.90;;;;;;5010821;28;20617;-64
2022/07/03 04:46:45;;;;;;;2.65;2.22;;;18.60;99.90;;;;;;5011077;28;20291;-64
2022/07/03 04:49:12;;;;;;;3.38;2.78;;;18.50;99.90;;;;;;5011312;28;20245;-64
2022/07/03 04:51:39;;;;;;;2.70;2.50;;;18.50;99.90;;;;;;5012282;28;20620;-64
2022/07/03 04:54:06;;;;;;;4.00;3.03;;;18.70;99.90;;;;;;5011130;28;20208;-64
2022/07/03 04:56:35;;;;;;;3.78;3.00;;;18.60;99.90;;;;;;5012609;28;20262;-64
2022/07/03 04:59:01;;;;;;;3.05;2.10;;;18.50;99.90;;;;;;5011442;28;20234;-64
2022/07/03 05:01:28;;;;;;;2.30;2.20;;;18.50;99.90;;;;;;5022046;28;20712;-64
2022/07/03 05:03:55;;;;;;;2.97;2.00;;;18.90;99.90;;;;;;5026634;28;20278;-64
2022/07/03 05:06:22;;;;;;;3.75;2.30;;;19.10;99.90;;;;;;5012900;28;20295;-64
2022/07/03 05:08:49;;;;;;;2.25;2.05;;;19.20;99.90;;;;;;5013239;28;20236;-64
2022/07/03 05:11:16;;;;;;;2.90;2.13;;;19.50;95.90;;;;;;5010549;28;20287;-64
2022/07/03 05:13:45;;;;;;;2.20;2.00;;;20.10;95.50;;;;;;5009196;28;20595;-64
2022/07/03 05:16:12;;;;;;;2.45;1.83;;;20.40;91.50;;;;;;5006433;28;20602;-64
2022/07/03 05:18:39;;;;;;;2.78;2.00;;;21.90;82.00;;;;;;5013659;28;20228;-64
2022/07/03 05:21:06;;;;;;;3.65;2.38;;;21.60;73.70;;;;;;5009386;28;20223;-64
2022/07/03 05:23:33;;;;;;;2.20;2.00;;;21.10;73.20;;;;;;5011846;28;20621;-64
2022/07/03 05:26:00;;;;;;;4.50;2.33;;;20.70;69.90;;;;;;5012598;28;20287;-64
2022/07/03 05:28:27;;;;;;;3.20;2.25;;;20.60;73.00;;;;;;5008070;28;20208;-64
2022/07/03 05:30:55;;;;;;;3.13;2.30;;;20.90;74.40;;;;;;5013811;28;20286;-64
2022/07/03 05:33:22;;;;;;;2.15;2.00;;;21.30;67.30;;;;;;5008813;28;20223;-64
2022/07/03 05:35:49;;;;;;;2.67;1.52;;;21.50;66.50;;;;;;5010276;28;20670;-64
2022/07/03 05:39:31;;;;;;;1.95;1.85;;;22.10;54.30;;;;;;5012853;28;20311;-64
2022/07/03 05:41:03;;;;;;;4.00;1.67;;;22.20;55.90;;;;;;5009718;28;20200;-64
2022/07/03 05:43:30;;;;;;;1.95;1.60;;;22.20;53.10;;;;;;5010807;28;20228;-64
2022/07/03 05:45:59;;;;;;;4.22;2.15;;;22.10;52.20;;;;;;5010836;28;20224;-64
2022/07/03 05:48:26;;;;;;;1.95;1.60;;;22.30;54.90;;;;;;5010472;28;20250;-64
2022/07/03 05:50:53;;;;;;;2.13;1.92;;;23.60;55.00;;;;;;5012039;28;20262;-64
2022/07/03 05:53:20;;;;;;;3.20;1.83;;;23.50;55.90;;;;;;5013612;28;20209;-64
2022/07/03 05:55:47;;;;;;;3.78;2.10;;;23.10;55.90;;;;;;5015552;28;20267;-64
2022/07/03 05:58:15;;;;;;;1.70;1.60;;;23.40;59.30;;;;;;5011730;28;20215;-64
2022/07/03 06:00:42;;;;;;;1.83;1.67;;;23.70;57.40;;;;;;5010176;28;20236;-64
2022/07/03 06:03:11;;;;;;;1.73;1.63;;;23.30;59.30;;;;;;5009590;28;20201;-64
2022/07/03 06:05:38;;;;;;;1.98;1.85;;;22.60;64.10;;;;;;5009303;28;20571;-64
2022/07/03 06:08:05;;;;;;;2.80;2.60;;;22.00;66.50;;;;;;5009524;28;20211;-64
2022/07/03 06:10:32;;;;;;;2.53;1.70;;;21.80;67.60;;;;;;5006115;28;20630;-64
2022/07/03 06:13:00;;;;;;;1.90;1.80;;;22.00;70.50;;;;;;5008145;28;20204;-64
2022/07/03 06:15:27;;;;;;;1.85;1.75;;;22.20;68.00;;;;;;5009320;28;20208;-64
2022/07/03 06:17:54;;;;;;;1.92;1.80;;;22.00;69.50;;;;;;5009383;28;20251;-69
2022/07/03 06:20:23;;;;;;;4.30;2.13;;;22.20;70.20;;;;;;5004214;28;20267;-64
2022/07/03 06:22:50;;;;;;;1.83;1.70;;;22.10;66.70;;;;;;5004608;28;20254;-64
2022/07/03 06:25:17;;;;;;;1.65;1.52;;;21.90;66.30;;;;;;5003105;28;20201;-64
2022/07/03 06:27:44;;;;;;;1.63;1.52;;;22.10;63.00;;;;;;5005570;28;20201;-64
2022/07/03 06:30:12;;;;;;;1.73;1.63;;;22.30;61.40;;;;;;5012004;28;20204;-64
2022/07/03 06:32:39;;;;;;;1.80;1.70;;;22.20;59.50;;;;;;5015556;28;20204;-64
2022/07/03 06:35:07;;;;;;;2.15;1.88;;;22.20;61.60;;;;;;5013555;28;20216;-64
2022/07/03 06:37:35;;;;;;;2.38;1.58;;;22.20;59.60;;;;;;5011762;28;20610;-64
2022/07/03 06:40:02;;;;;;;1.80;1.70;;;22.40;54.60;;;;;;5012153;28;20274;-64
2022/07/03 06:42:29;;;;;;;1.92;1.80;;;22.40;56.20;;;;;;5010966;28;20255;-64
2022/07/03 06:44:56;;;;;;;1.85;1.75;;;22.30;53.60;;;;;;5014666;28;20208;-65
2022/07/03 06:47:23;;;;;;;3.78;1.88;;;22.50;51.50;;;;;;5014234;28;20624;-64
2022/07/03 06:49:50;;;;;;;2.95;1.80;;;22.30;50.30;;;;;;5012759;28;20212;-64
2022/07/03 06:52:17;;;;;;;2.88;1.90;;;22.20;51.20;;;;;;5014697;28;20201;-64
2022/07/03 06:54:48;;;;;;;1.70;1.60;;;22.20;50.00;;;;;;5008822;28;20289;-64
2022/07/03 06:57:16;;;;;;;2.60;2.05;;;22.30;51.40;;;;;;5017628;28;20300;-64
2022/07/03 06:59:43;;;;;;;2.88;1.90;;;22.40;49.90;;;;;;5014136;28;20648;-64
2022/07/03 07:02:09;;;;;;;3.22;2.25;;;22.40;47.90;;;;;;5013632;28;20733;-64
2022/07/03 07:04:36;;;;;;;2.63;1.98;;;22.40;51.00;;;;;;5014284;28;20291;-64
2022/07/03 07:07:04;;;;;;;1.85;1.75;;;22.40;49.80;;;;;;5012285;28;20654;-64
2022/07/03 07:09:31;;;;;;;1.80;1.70;;;22.30;52.00;;;;;;5009983;28;20635;-64
2022/07/03 07:12:00;;;;;;;4.25;2.00;;;22.40;51.70;;;;;;5013200;28;20204;-64
2022/07/03 07:14:27;;;;;;;2.40;2.20;;;22.20;50.60;;;;;;5011626;28;20204;-64
2022/07/03 07:16:54;;;;;;;1.85;1.75;;;22.20;53.10;;;;;;5011056;28;20236;-64
2022/07/03 07:19:21;;;;;;;3.10;1.90;;;22.30;54.80;;;;;;5011873;28;20286;-64
2022/07/03 07:21:48;;;;;;;4.55;2.00;;;22.40;54.60;;;;;;5011826;28;20616;-64
2022/07/03 07:24:14;;;;;;;2.78;2.10;;;22.60;55.40;;;;;;5006549;28;20663;-64
2022/07/03 07:26:42;;;;;;;2.15;1.95;;;22.70;52.90;;;;;;5008922;28;20237;-64
2022/07/03 07:29:10;;;;;;;3.25;2.20;;;22.80;52.80;;;;;;5009939;28;20254;-64
2022/07/03 07:31:37;;;;;;;2.22;1.90;;;22.70;51.20;;;;;;5009039;28;20201;-64
2022/07/03 07:34:04;;;;;;;3.97;2.20;;;22.80;53.10;;;;;;5010799;28;20706;-64
2022/07/03 07:36:32;;;;;;;1.83;1.73;;;22.80;52.40;;;;;;5012472;28;20205;-64
2022/07/03 07:38:59;;;;;;;3.08;2.00;;;22.80;52.80;;;;;;5010602;28;20227;-64
2022/07/03 07:41:26;;;;;;;4.18;2.08;;;22.80;55.00;;;;;;5017391;28;20195;-64
2022/07/03 07:43:53;;;;;;;2.20;2.10;;;22.80;53.50;;;;;;5012657;28;20223;-64
2022/07/03 07:46:21;;;;;;;2.47;2.28;;;22.90;54.60;;;;;;5011865;28;20279;-64
2022/07/03 07:48:51;;;;;;;2.00;1.90;;;23.00;53.70;;;;;;5010354;28;20303;-64
2022/07/03 07:51:18;;;;;;;2.38;2.17;;;23.20;51.60;;;;;;5010947;28;20262;-64
2022/07/03 07:53:45;;;;;;;2.30;2.10;;;23.40;51.60;;;;;;5013191;28;20295;-64
2022/07/03 07:56:12;;;;;;;1.90;1.80;;;23.30;48.50;;;;;;5012051;28;20211;-64
2022/07/03 07:58:39;;;;;;;2.72;1.80;;;23.40;46.50;;;;;;5010172;28;20204;-64
2022/07/03 08:06:37;;;;;;;1.80;1.70;;;24.20;40.80;;;;;;5008500;28;20705;-64
2022/07/03 08:09:04;;;;;;;1.65;1.55;;;24.30;36.80;;;;;;5007611;28;20243;-64
2022/07/03 08:11:31;;;;;;;1.75;1.60;;;24.30;34.90;;;;;;5010060;28;20200;-64
2022/07/03 08:13:58;;;;;;;1.77;1.67;;;24.40;36.10;;;;;;5010426;28;20203;-64
2022/07/03 08:16:25;;;;;;;2.17;1.55;;;24.30;33.30;;;;;;5010979;28;20563;-64
2022/07/03 08:18:53;;;;;;;1.83;1.52;;;24.10;34.10;;;;;;5007752;28;20291;-64
2022/07/03 08:21:20;;;;;;;1.90;1.80;;;24.20;33.40;;;;;;5012247;28;20266;-64
2022/07/03 08:23:48;;;;;;;3.05;1.65;;;24.40;36.40;;;;;;5011860;28;20662;-64
2022/07/03 08:26:14;;;;;;;2.13;1.88;;;24.50;36.50;;;;;;5014743;28;20664;-64
2022/07/03 08:28:41;;;;;;;3.13;1.83;;;24.50;32.90;;;;;;5011514;28;20263;-64
2022/07/03 08:31:09;;;;;;;3.72;2.15;;;24.60;34.80;;;;;;5010883;28;20212;-64
2022/07/03 08:33:36;;;;;;;1.63;1.52;;;24.50;35.90;;;;;;5009054;28;20251;-64
2022/07/03 08:36:05;;;;;;;1.85;1.70;;;24.50;34.30;;;;;;5013564;28;20616;-64
2022/07/03 08:38:34;;;;;;;2.00;1.90;;;24.40;34.80;;;;;;5014731;28;20203;-64
2022/07/03 08:41:01;;;;;;;1.90;1.80;;;24.70;35.30;;;;;;5010483;28;20227;-64
2022/07/03 08:43:29;;;;;;;2.40;2.20;;;24.90;34.80;;;;;;5014354;28;20203;-64
2022/07/03 08:45:59;;;;;;;1.90;1.80;;;24.90;33.60;;;;;;5011238;28;20580;-64
2022/07/03 08:48:27;;;;;;;1.90;1.80;;;25.00;33.20;;;;;;5014850;28;20204;-64
2022/07/03 08:50:54;;;;;;;4.68;1.90;;;25.00;29.40;;;;;;5017335;28;20292;-64
2022/07/03 08:53:24;;;;;;;2.05;1.95;;;25.50;29.30;;;;;;5009978;28;20243;-64
2022/07/03 08:55:51;;;;;;;2.35;2.08;;;25.90;27.30;;;;;;5009099;28;20210;-64
2022/07/03 08:58:19;;;;;;;3.80;2.15;;;26.00;27.30;;;;;;5010659;28;20219;-64
2022/07/03 09:00:46;;;;;;;4.35;1.98;;;26.30;27.20;;;;;;5009446;28;20263;-64
2022/07/03 09:03:14;;;;;;;1.92;1.83;;;26.40;25.90;;;;;;5011498;28;20255;-64
2022/07/03 09:05:42;;;;;;;2.42;2.13;;;26.80;26.30;;;;;;5009633;28;20280;-64
2022/07/03 09:08:10;;;;;;;1.92;1.83;;;27.00;25.60;;;;;;5015522;28;20200;-64
2022/07/03 09:10:39;;;;;;;2.42;1.90;;;27.00;26.00;;;;;;5008858;28;20200;-64
2022/07/03 09:13:06;;;;;;;3.35;2.03;;;27.30;23.60;;;;;;5008318;28;20643;-64
2022/07/03 09:15:33;;;;;;;1.90;1.80;;;27.70;23.10;;;;;;5008736;28;20258;-64
2022/07/03 09:18:02;;;;;;;1.80;1.70;;;27.80;22.90;;;;;;5016170;28;20236;-64
2022/07/03 09:20:34;;;;;;;2.10;1.90;;;28.10;20.20;;;;;;5012376;28;20230;-64
2022/07/03 09:23:17;;;;;;;2.13;1.77;;;28.10;19.80;;;;;;5017960;28;20202;-65
2022/07/03 09:25:56;;;;;;;1.60;1.50;;;28.20;17.30;;;;;;5011988;28;20208;-64
2022/07/03 09:28:24;;;;;;;2.85;1.80;;;28.20;16.40;;;;;;5012993;28;20292;-66
2022/07/03 09:30:59;;;;;;;3.38;2.13;;;28.70;16.80;;;;;;5012040;28;20283;-66
2022/07/03 09:33:26;;;;;;;1.65;1.40;;;28.60;14.80;;;;;;5011098;28;20200;-66
2022/07/03 09:35:55;;;;;;;3.75;1.65;;;28.70;12.00;;;;;;5006849;28;20259;-66
2022/07/03 09:38:23;;;;;;;1.92;1.63;;;28.60;10.40;;;;;;5009579;28;20205;-66
2022/07/03 09:40:51;;;;;;;1.48;1.38;;;29.00;10.10;;;;;;5009359;28;20270;-66
2022/07/03 09:43:25;;;;;;;1.50;1.40;;;28.50;9.80;;;;;;5009938;28;20200;-66
2022/07/03 09:45:57;;;;;;;2.28;1.45;;;28.80;10.30;;;;;;5010606;28;20291;-66
2022/07/03 09:48:26;;;;;;;1.52;1.27;;;28.90;10.40;;;;;;5010445;28;20257;-67
2022/07/03 09:51:16;;;;;;;2.03;1.30;;;29.10;8.80;;;;;;5008232;28;20212;-67
2022/07/03 09:53:52;;;;;;;1.33;1.30;;;28.30;9.00;;;;;;5009976;28;20275;-66
2022/07/03 09:56:20;;;;;;;1.80;1.52;;;28.90;9.20;;;;;;5010939;28;20599;-66
2022/07/03 09:59:07;;;;;;;1.52;1.42;;;29.00;9.10;;;;;;5015071;28;20210;-66
2022/07/03 10:01:34;;;;;;;2.15;1.55;;;29.30;7.50;;;;;;5013767;28;20258;-66
2022/07/03 10:04:13;;;;;;;2.80;1.60;;;28.80;9.60;;;;;;5013977;28;20562;-66
2022/07/03 10:06:54;;;;;;;1.30;1.20;;;29.40;8.30;;;;;;5012730;28;20258;-66
2022/07/03 10:09:23;;;;;;;2.28;1.40;;;29.20;5.60;;;;;;5011513;28;20255;-66
2022/07/03 10:11:50;;;;;;;2.83;1.40;;;29.60;5.10;;;;;;5011836;28;20246;-66
2022/07/03 10:14:20;;;;;;;1.73;1.42;;;29.70;4.50;;;;;;5008275;28;20287;-66
2022/07/03 10:16:47;;;;;;;2.33;1.25;;;29.60;5.30;;;;;;5017251;28;20291;-66
2022/07/03 10:19:18;;;;;;;2.58;1.27;;;29.90;5.70;;;;;;5007498;28;20735;-66
2022/07/03 10:21:50;;;;;;;1.38;1.27;;;30.20;4.70;;;;;;5010313;28;20208;-66
2022/07/03 10:24:18;;;;;;;2.63;1.70;;;30.80;5.20;;;;;;5013671;28;20201;-66
2022/07/03 10:26:47;;;;;;;1.50;1.40;;;30.90;3.50;;;;;;5017819;28;20355;-66
2022/07/03 10:29:16;;;;;;;2.38;1.50;;;31.00;5.00;;;;;;5013537;28;20587;-67
2022/07/03 10:31:47;;;;;;;2.35;1.42;;;30.70;2.20;;;;;;5012599;28;20204;-66
2022/07/03 10:34:18;;;;;;;1.95;1.55;;;30.50;5.10;;;;;;5013400;28;20212;-66
2022/07/03 10:36:48;;;;;;;3.28;1.58;;;30.30;2.60;;;;;;5016943;28;20207;-66
2022/07/03 10:39:24;;;;;;;3.20;1.58;;;30.10;3.60;;;;;;5009924;28;20263;-66
2022/07/03 10:45:03;;;;;;;2.45;1.30;;;30.20;4.00;;;;;;5013480;28;20219;-67
2022/07/03 10:47:48;;;;;;;2.35;1.13;;;30.40;1.80;;;;;;5013927;28;20750;-67
2022/07/03 10:50:16;;;;;;;2.05;1.20;;;30.30;2.10;;;;;;5013083;28;20254;-67
2022/07/03 10:52:44;;;;;;;3.63;1.13;;;30.40;1.40;;;;;;5014799;28;20208;-66
2022/07/03 10:55:13;;;;;;;1.40;1.27;;;30.20;2.30;;;;;;5006517;28;20267;-66
2022/07/03 10:57:41;;;;;;;1.13;1.10;;;29.90;2.50;;;;;;5004244;28;20457;-66
2022/07/03 11:00:17;;;;;;;2.88;1.50;;;30.00;1.20;;;;;;5010814;28;20263;-69
2022/07/03 11:02:48;;;;;;;1.95;1.40;;;30.10;1.30;;;;;;5010261;28;20262;-67
2022/07/03 11:05:37;;;;;;;1.20;1.20;;;30.60;1.00;;;;;;5008954;28;20503;-67
2022/07/03 11:08:14;;;;;;;1.52;1.40;;;31.10;1.70;;;;;;5004035;28;20209;-67
2022/07/03 11:10:43;;;;;;;1.88;1.25;;;31.10;1.00;;;;;;5009281;28;20239;-67
2022/07/03 11:13:21;;;;;;;1.60;1.40;;;31.30;1.00;;;;;;5014733;28;20584;-67
2022/07/03 11:15:50;;;;;;;1.27;1.20;;;30.70;1.00;;;;;;5012556;28;20211;-67
2022/07/03 11:18:30;;;;;;;1.45;1.35;;;30.60;1.00;;;;;;5014149;28;20209;-67
2022/07/03 11:21:23;;;;;;;1.20;1.10;;;30.80;1.00;;;;;;5011763;28;20318;-67
2022/07/03 11:24:28;;;;;;;1.10;1.10;;;30.50;1.00;;;;;;5014060;28;20211;-67
2022/07/03 11:27:24;;;;;;;1.13;1.13;;;30.10;1.00;;;;;;5007504;28;20677;-67
2022/07/03 11:29:57;;;;;;;3.97;1.45;;;30.40;1.00;;;;;;4964399;28;20270;-68
2022/07/03 11:32:50;;;;;;;1.42;1.33;;;30.70;1.00;;;;;;5008187;28;20228;-68
2022/07/03 11:35:51;;;;;;;1.80;1.25;;;30.70;1.00;;;;;;5013567;28;20204;-67
2022/07/03 11:38:29;;;;;;;1.65;1.55;;;30.30;1.00;;;;;;5011288;28;20216;-67
2022/07/03 11:40:59;;;;;;;2.10;1.58;;;30.70;1.10;;;;;;5016388;28;20698;-67
2022/07/03 11:43:26;;;;;;;1.42;1.20;;;30.40;1.50;;;;;;5009181;28;20212;-67
2022/07/03 11:45:54;;;;;;;1.30;1.20;;;29.90;1.00;;;;;;5012427;28;20731;-67
2022/07/03 11:48:22;;;;;;;1.48;1.40;;;30.40;1.80;;;;;;5012449;28;20202;-67
2022/07/03 11:50:51;;;;;;;2.25;1.67;;;30.10;1.00;;;;;;5009147;28;20204;-67
2022/07/03 11:53:23;;;;;;;2.00;1.23;;;29.80;1.00;;;;;;5012560;28;20209;-67
2022/07/03 11:55:56;;;;;;;1.67;1.50;;;30.30;1.00;;;;;;5013910;28;20328;-67
2022/07/03 11:58:24;;;;;;;1.35;1.08;;;30.70;1.00;;;;;;5008348;28;20208;-67
2022/07/03 12:00:52;;;;;;;2.03;1.63;;;30.40;1.00;;;;;;5011611;28;20684;-67
2022/07/03 12:03:25;;;;;;;1.65;1.30;;;31.20;1.50;;;;;;5018829;28;20204;-67
2022/07/03 12:05:56;;;;;;;3.70;1.33;;;31.00;1.00;;;;;;5010894;28;20320;-67
2022/07/03 12:08:29;;;;;;;2.53;1.20;;;30.60;1.00;;;;;;5011673;28;20272;-67
2022/07/03 12:11:06;;;;;;;1.85;1.35;;;30.60;1.00;;;;;;5009894;28;20204;-67
2022/07/03 12:13:37;;;;;;;2.42;1.10;;;31.00;1.00;;;;;;4993000;28;20212;-67
2022/07/03 12:16:07;;;;;;;1.50;1.40;;;30.20;1.00;;;;;;5012670;28;20219;-67
2022/07/03 12:18:45;;;;;;;1.67;1.27;;;30.50;1.00;;;;;;5011557;28;20208;-67
2022/07/03 12:21:13;;;;;;;6.03;1.40;;;30.30;1.00;;;;;;5010162;28;20264;-67
2022/07/03 12:23:45;;;;;;;1.60;1.40;;;30.40;1.00;;;;;;5011804;28;20920;-67
2022/07/03 12:26:12;;;;;;;1.70;1.52;;;29.70;1.00;;;;;;5009894;28;20208;-67
2022/07/03 12:28:40;;;;;;;2.33;1.63;;;29.50;1.00;;;;;;5011657;28;20207;-67
2022/07/03 12:31:07;;;;;;;2.33;1.17;;;30.00;1.00;;;;;;5009717;28;20259;-67
2022/07/03 12:33:36;;;;;;;1.48;1.23;;;30.40;1.00;;;;;;5014678;28;20195;-67
2022/07/03 12:36:04;;;;;;;0.82;0.82;;;30.30;1.00;;;;;;5010722;28;20208;-67
2022/07/03 12:38:33;;;;;;;2.17;1.02;;;30.90;1.00;;;;;;5009879;28;20232;-67
2022/07/03 12:41:08;;;;;;;1.35;1.25;;;30.80;1.00;;;;;;5008189;28;20279;-66
2022/07/03 12:43:39;;;;;;;1.67;1.08;;;31.40;1.00;;;;;;5010661;28;20231;-66
2022/07/03 12:46:20;;;;;;;1.13;1.02;;;31.70;1.00;;;;;;5012606;28;20208;-66
2022/07/03 12:48:48;;;;;;;1.45;1.25;;;31.30;1.00;;;;;;5007475;28;20232;-66
2022/07/03 12:51:16;;;;;;;1.67;1.35;;;31.00;1.00;;;;;;5011140;28;20292;-66
2022/07/03 12:53:55;;;;;;;1.50;0.93;;;31.00;1.00;;;;;;5011021;28;20267;-66
2022/07/03 12:56:22;;;;;;;1.67;1.58;;;31.50;1.00;;;;;;5007923;28;20240;-66
2022/07/03 13:01:36;;;;;;;2.63;1.77;;;31.00;1.00;;;;;;5012123;28;20235;-66
2022/07/03 13:04:04;;;;;;;2.25;1.23;;;30.60;1.00;;;;;;5008084;28;20611;-66
2022/07/03 13:06:31;;;;;;;1.00;1.00;;;30.90;1.00;;;;;;5013204;28;20208;-66
2022/07/03 13:09:02;;;;;;;2.53;1.27;;;31.40;1.00;;;;;;5012209;28;20242;-66
2022/07/03 13:11:36;;;;;;;1.60;1.30;;;31.70;1.00;;;;;;5017096;28;20208;-66
2022/07/03 13:14:06;;;;;;;2.33;1.30;;;31.80;1.00;;;;;;5010068;28;20216;-66
2022/07/03 13:16:38;;;;;;;1.42;1.33;;;31.20;1.00;;;;;;5011467;28;20268;-66